createdAt,value
2023-07-08T00:00:52.202Z,66.29
2023-07-08T00:05:56.886Z,67.59
2023-07-08T00:10:58.726Z,68.54
2023-07-08T00:16:00.776Z,70.30
2023-07-08T00:21:02.585Z,70.16
2023-07-08T00:26:27.862Z,69.90
2023-07-08T00:31:29.536Z,69.20
2023-07-08T00:36:32.105Z,68.88
2023-07-08T00:41:38.553Z,68.50
2023-07-08T00:47:06.392Z,68.22
2023-07-08T00:52:29.056Z,67.96
2023-07-08T00:57:35.854Z,69.31
2023-07-08T01:02:43.363Z,69.32
2023-07-08T01:07:50.042Z,70.23
2023-07-08T01:12:54.905Z,70.43
2023-07-08T01:17:56.843Z,71.53
2023-07-08T01:22:58.588Z,72.43
2023-07-08T01:28:00.645Z,73.28
2023-07-08T01:33:08.352Z,72.47
2023-07-08T01:38:13.397Z,72.34
2023-07-08T01:43:15.116Z,70.84
2023-07-08T01:48:21.691Z,70.70
2023-07-08T01:53:30.737Z,70.46
2023-07-08T01:58:32.331Z,70.84
2023-07-08T02:03:34.245Z,71.30
2023-07-08T02:08:35.794Z,72.71
2023-07-08T02:13:37.755Z,76.77
2023-07-08T02:18:39.412Z,77.46
2023-07-08T02:23:41.087Z,76.62
2023-07-08T02:28:42.838Z,77.46
2023-07-08T02:33:44.433Z,79.24
2023-07-08T02:38:47.118Z,79.69
2023-07-08T02:43:48.700Z,78.97
2023-07-08T02:48:50.399Z,79.73
2023-07-08T02:53:52.110Z,80.20
2023-07-08T02:58:54.417Z,81.37
2023-07-08T03:03:56.143Z,82.52
2023-07-08T03:08:57.940Z,85.26
2023-07-08T03:13:59.706Z,85.65
2023-07-08T03:19:01.878Z,86.27
2023-07-08T03:24:04.637Z,86.61
2023-07-08T03:29:16.334Z,87.74
2023-07-08T03:34:19.358Z,89.16
2023-07-08T03:39:23.727Z,90.26
2023-07-08T03:44:25.528Z,89.75
2023-07-08T03:49:27.168Z,88.22
2023-07-08T03:54:30.785Z,87.59
2023-07-08T03:59:33.771Z,88.40
2023-07-08T04:04:35.759Z,86.76
2023-07-08T04:09:38.476Z,90.40
2023-07-08T04:14:40.149Z,89.63
2023-07-08T04:19:41.707Z,88.84
2023-07-08T04:24:43.605Z,90.17
2023-07-08T04:29:45.324Z,91.32
2023-07-08T04:34:47.137Z,91.16
2023-07-08T04:39:49.032Z,90.09
2023-07-08T04:44:50.848Z,90.42
2023-07-08T04:49:52.480Z,89.41
2023-07-08T04:54:54.163Z,86.84
2023-07-08T04:59:55.742Z,88.26
2023-07-08T05:05:00.382Z,86.98
2023-07-08T05:10:01.994Z,83.88
2023-07-08T05:15:05.692Z,81.06
2023-07-08T05:20:09.879Z,77.71
2023-07-08T05:25:13.315Z,72.04
2023-07-08T05:30:18.154Z,69.98
2023-07-08T05:35:19.920Z,68.64
2023-07-08T05:40:21.706Z,65.90
2023-07-08T05:45:23.312Z,68.07
2023-07-08T05:50:24.941Z,67.77
2023-07-08T05:55:26.888Z,70.06
2023-07-08T06:00:38.468Z,69.61
2023-07-08T06:05:41.146Z,59.52
2023-07-08T06:10:45.186Z,55.98
2023-07-08T06:15:48.024Z,52.73
2023-07-08T06:20:58.356Z,54.58
2023-07-08T06:26:00.111Z,52.82
2023-07-08T06:31:01.990Z,50.73
2023-07-08T06:36:03.962Z,48.91
2023-07-08T06:41:05.567Z,46.66
2023-07-08T06:46:07.163Z,45.00
2023-07-08T06:51:08.747Z,42.68
2023-07-08T06:56:10.300Z,45.91
2023-07-08T07:01:12.010Z,44.07
2023-07-08T07:06:13.752Z,44.33
2023-07-08T07:11:15.728Z,41.14
2023-07-08T07:16:17.393Z,45.63
2023-07-08T07:21:19.323Z,46.48
2023-07-08T07:26:22.968Z,45.70
2023-07-08T07:31:26.045Z,45.95
2023-07-08T07:36:27.739Z,41.34
2023-07-08T07:41:29.387Z,40.75
2023-07-08T07:46:30.989Z,38.77
2023-07-08T07:51:32.646Z,37.06
2023-07-08T07:56:34.243Z,37.36
2023-07-08T08:01:35.805Z,37.88
2023-07-08T08:06:37.865Z,39.65
2023-07-08T08:11:39.545Z,35.05
2023-07-08T08:16:41.164Z,37.53
2023-07-08T08:21:43.323Z,35.39
2023-07-08T08:26:45.322Z,30.48
2023-07-08T08:31:47.280Z,32.35
2023-07-08T08:36:49.091Z,32.41
2023-07-08T08:41:51.516Z,30.58
2023-07-08T08:46:59.194Z,30.60
2023-07-08T08:52:01.075Z,31.62
2023-07-08T08:57:24.509Z,32.73
2023-07-08T09:02:39.891Z,31.77
2023-07-08T09:07:48.233Z,31.16
2023-07-08T09:12:54.258Z,30.12
2023-07-08T09:18:01.059Z,31.23
2023-07-08T09:23:26.361Z,29.83
2023-07-08T09:28:43.122Z,29.27
2023-07-08T09:33:44.722Z,29.05
2023-07-08T09:38:49.903Z,29.12
2023-07-08T09:43:51.564Z,28.16
2023-07-08T09:48:53.171Z,27.34
2023-07-08T09:53:54.730Z,29.06
2023-07-08T09:58:56.599Z,27.62
2023-07-08T10:04:02.289Z,30.26
2023-07-08T10:09:14.016Z,26.85
2023-07-08T10:14:39.799Z,29.24
2023-07-08T10:19:43.776Z,27.92
2023-07-08T10:25:18.322Z,27.82
2023-07-08T10:30:26.343Z,26.54
2023-07-08T10:35:31.407Z,24.25
2023-07-08T10:40:38.892Z,23.89
2023-07-08T10:45:47.328Z,25.97
2023-07-08T10:51:10.661Z,23.39
2023-07-08T10:56:19.141Z,23.90
2023-07-08T11:01:31.899Z,26.54
2023-07-08T11:06:51.850Z,24.69
2023-07-08T11:12:02.845Z,22.88
2023-07-08T11:17:10.199Z,23.36
2023-07-08T11:22:14.990Z,23.78
2023-07-08T11:27:41.822Z,25.31
2023-07-08T11:32:46.676Z,23.85
2023-07-08T11:37:48.829Z,23.72
2023-07-08T11:43:01.169Z,23.49
2023-07-08T11:48:07.809Z,23.00
2023-07-08T11:53:12.609Z,24.18
2023-07-08T11:58:22.421Z,24.58
2023-07-08T12:03:35.108Z,24.55
2023-07-08T12:08:42.965Z,23.60
2023-07-08T12:13:44.781Z,23.96
2023-07-08T12:18:48.799Z,23.90
2023-07-08T12:23:50.371Z,22.59
2023-07-08T12:28:53.035Z,21.47
2023-07-08T12:33:55.604Z,22.03
2023-07-08T12:39:00.614Z,23.47
2023-07-08T12:44:03.079Z,21.37
2023-07-08T12:49:04.699Z,21.60
2023-07-08T12:54:06.293Z,21.58
2023-07-08T12:59:07.972Z,21.83
2023-07-08T13:04:12.905Z,21.28
2023-07-08T13:09:32.694Z,22.48
2023-07-08T13:14:34.750Z,20.72
2023-07-08T13:19:36.361Z,22.89
2023-07-08T13:24:38.202Z,21.16
2023-07-08T13:29:40.095Z,21.65
2023-07-08T13:34:41.973Z,22.05
2023-07-08T13:39:47.352Z,22.38
2023-07-08T13:44:50.178Z,20.99
2023-07-08T13:50:05.720Z,20.67
2023-07-08T13:55:20.062Z,20.84
2023-07-08T14:00:22.559Z,22.16
2023-07-08T14:05:24.278Z,21.53
2023-07-08T14:10:26.078Z,20.65
2023-07-08T14:15:27.698Z,21.57
2023-07-08T14:20:30.373Z,23.52
2023-07-08T14:25:32.119Z,22.86
2023-07-08T14:30:38.351Z,21.71
2023-07-08T14:35:42.196Z,22.76
2023-07-08T14:40:43.885Z,24.75
2023-07-08T14:45:50.440Z,23.85
2023-07-08T14:50:52.235Z,22.61
2023-07-08T14:55:56.728Z,22.68
2023-07-08T15:01:01.240Z,22.82
2023-07-08T15:06:03.247Z,25.37
2023-07-08T15:11:05.912Z,25.39
2023-07-08T15:16:15.954Z,27.97
2023-07-08T15:21:17.616Z,27.61
2023-07-08T15:26:19.378Z,26.39
2023-07-08T15:31:24.779Z,27.78
2023-07-08T15:36:26.571Z,28.83
2023-07-08T15:41:28.416Z,28.76
2023-07-08T15:46:36.577Z,28.12
2023-07-08T15:51:38.531Z,28.67
2023-07-08T15:56:41.420Z,28.67
2023-07-08T16:01:43.743Z,29.27
2023-07-08T16:06:45.350Z,28.87
2023-07-08T16:11:47.237Z,30.25
2023-07-08T16:16:49.016Z,31.01
2023-07-08T16:21:50.655Z,31.78
2023-07-08T16:26:52.278Z,32.14
2023-07-08T16:31:54.056Z,31.91
2023-07-08T16:36:55.666Z,32.31
2023-07-08T16:41:57.483Z,97.60
2023-07-08T16:46:59.363Z,100.00
2023-07-08T16:52:01.273Z,100.00
2023-07-08T16:57:02.976Z,100.00
2023-07-08T17:02:15.850Z,100.00
2023-07-08T17:07:17.618Z,100.00
2023-07-08T17:12:19.210Z,100.00
2023-07-08T17:17:20.904Z,100.00
2023-07-08T17:22:22.567Z,100.00
2023-07-08T17:27:24.547Z,100.00
2023-07-08T17:32:26.401Z,100.00
2023-07-08T17:37:28.189Z,100.00
2023-07-08T17:42:29.751Z,100.00
2023-07-08T17:47:31.461Z,100.00
2023-07-08T17:52:33.191Z,100.00
2023-07-08T17:57:35.828Z,100.00
2023-07-08T18:02:37.514Z,100.00
2023-07-08T18:07:39.226Z,100.00
2023-07-08T18:12:41.659Z,100.00
2023-07-08T18:17:43.509Z,100.00
2023-07-08T18:22:48.584Z,100.00
2023-07-08T18:27:50.797Z,100.00
2023-07-08T18:32:53.114Z,100.00
2023-07-08T18:37:55.970Z,100.00
2023-07-08T18:43:06.998Z,100.00
2023-07-08T18:48:13.785Z,100.00
2023-07-08T18:53:17.882Z,100.00
2023-07-08T18:58:23.443Z,100.00
2023-07-08T19:03:28.761Z,100.00
2023-07-08T19:08:30.536Z,100.00
2023-07-08T19:13:32.145Z,100.00
2023-07-08T19:18:33.827Z,100.00
2023-07-08T19:23:35.707Z,100.00
2023-07-08T19:28:37.379Z,100.00
2023-07-08T19:33:39.183Z,100.00
2023-07-08T19:38:40.964Z,100.00
2023-07-08T19:43:43.064Z,100.00
2023-07-08T19:48:44.880Z,100.00
2023-07-08T19:53:46.719Z,100.00
2023-07-08T19:58:48.826Z,100.00
2023-07-08T20:03:50.668Z,100.00
2023-07-08T20:08:52.678Z,100.00
2023-07-08T20:13:54.716Z,100.00
2023-07-08T20:18:56.409Z,100.00
2023-07-08T20:23:58.003Z,100.00
2023-07-08T20:29:00.109Z,100.00
2023-07-08T20:34:01.694Z,100.00
2023-07-08T20:39:04.283Z,100.00
2023-07-08T20:44:05.881Z,100.00
2023-07-08T20:49:10.801Z,100.00
2023-07-08T20:54:15.634Z,100.00
2023-07-08T20:59:19.289Z,100.00
2023-07-08T21:04:21.379Z,100.00
2023-07-08T21:09:22.977Z,100.00
2023-07-08T21:14:24.658Z,100.00
2023-07-08T21:19:26.221Z,100.00
2023-07-08T21:24:30.861Z,100.00
2023-07-08T21:29:32.826Z,100.00
2023-07-08T21:34:34.394Z,100.00
2023-07-08T21:39:36.104Z,100.00
2023-07-08T21:44:37.776Z,100.00
2023-07-08T21:49:39.392Z,100.00
2023-07-08T21:54:40.943Z,100.00
2023-07-08T21:59:42.511Z,100.00
2023-07-08T22:04:44.253Z,100.00
2023-07-08T22:09:45.891Z,100.00
2023-07-08T22:14:47.484Z,100.00
2023-07-08T22:19:49.087Z,100.00
2023-07-08T22:24:50.901Z,100.00
2023-07-08T22:29:52.531Z,100.00
2023-07-08T22:34:54.140Z,100.00
2023-07-08T22:39:55.935Z,100.00
2023-07-08T22:44:57.675Z,100.00
2023-07-08T22:49:59.247Z,100.00
2023-07-08T22:55:04.164Z,100.00
2023-07-08T23:00:06.780Z,100.00
2023-07-08T23:05:08.618Z,100.00
2023-07-08T23:10:14.542Z,100.00
2023-07-08T23:15:16.174Z,100.00
2023-07-08T23:20:20.964Z,100.00
2023-07-08T23:25:22.814Z,100.00
2023-07-08T23:30:24.516Z,100.00
2023-07-08T23:35:26.188Z,100.00
2023-07-08T23:40:27.910Z,100.00
2023-07-08T23:45:29.605Z,100.00
2023-07-08T23:50:31.225Z,100.00
2023-07-08T23:55:32.825Z,100.00
